createdAt,value
2019-05-11T00:00:32.226Z,7.90
2019-05-11T00:03:03.785Z,10.87
2019-05-11T00:05:35.246Z,8.23
2019-05-11T00:08:07.131Z,11.03
2019-05-11T00:10:38.596Z,10.63
2019-05-11T00:13:10.166Z,8.50
2019-05-11T00:15:41.605Z,7.67
2019-05-11T00:18:13.096Z,9.53
2019-05-11T00:20:44.569Z,7.90
2019-05-11T00:23:16.433Z,8.03
2019-05-11T00:25:47.909Z,9.70
2019-05-11T00:28:19.418Z,8.73
2019-05-11T00:30:50.980Z,9.50
2019-05-11T00:33:22.549Z,9.77
2019-05-11T00:35:54.040Z,8.57
2019-05-11T00:38:25.862Z,9.50
2019-05-11T00:40:58.337Z,7.17
2019-05-11T00:43:29.839Z,7.57
2019-05-11T00:46:01.353Z,10.37
2019-05-11T00:48:32.844Z,7.27
2019-05-11T00:51:04.353Z,8.70
2019-05-11T00:53:35.946Z,7.97
2019-05-11T00:56:07.970Z,8.40
2019-05-11T00:58:39.466Z,8.03
2019-05-11T01:01:10.956Z,10.57
2019-05-11T01:03:42.509Z,10.40
2019-05-11T01:06:14.087Z,9.23
2019-05-11T01:08:45.681Z,9.80
2019-05-11T01:11:17.717Z,10.57
2019-05-11T01:13:49.328Z,8.43
2019-05-11T01:16:21.002Z,12.83
2019-05-11T01:18:52.480Z,11.40
2019-05-11T01:21:24.038Z,9.90
2019-05-11T01:23:55.580Z,11.90
2019-05-11T01:26:27.216Z,12.93
2019-05-11T01:28:58.669Z,11.43
2019-05-11T01:31:30.311Z,12.10
2019-05-11T01:34:02.211Z,16.30
2019-05-11T01:36:33.686Z,18.87
2019-05-11T01:39:07.150Z,13.90
2019-05-11T01:41:38.593Z,13.83
2019-05-11T01:44:13.941Z,12.73
2019-05-11T01:46:45.497Z,15.90
2019-05-11T01:49:17.019Z,13.67
2019-05-11T01:51:48.473Z,14.20
2019-05-11T01:54:21.107Z,14.00
2019-05-11T01:56:52.568Z,13.63
2019-05-11T01:59:24.076Z,15.30
2019-05-11T02:01:55.532Z,15.43
2019-05-11T02:04:27.391Z,14.47
2019-05-11T02:06:58.851Z,15.77
2019-05-11T02:09:30.423Z,17.33
2019-05-11T02:12:01.874Z,16.77
2019-05-11T02:14:33.702Z,14.73
2019-05-11T02:17:05.261Z,17.03
2019-05-11T02:19:36.770Z,14.77
2019-05-11T02:22:09.513Z,16.97
2019-05-11T02:24:40.973Z,16.43
2019-05-11T02:27:12.442Z,17.57
2019-05-11T02:29:44.396Z,14.60
2019-05-11T02:32:15.911Z,13.83
2019-05-11T02:34:51.330Z,13.60
2019-05-11T02:37:22.814Z,14.03
2019-05-11T02:39:54.273Z,14.03
2019-05-11T02:42:25.785Z,14.13
2019-05-11T02:44:57.236Z,14.37
2019-05-11T02:47:28.858Z,14.80
2019-05-11T02:50:00.313Z,11.83
2019-05-11T02:52:33.848Z,13.47
2019-05-11T02:55:05.922Z,11.90
2019-05-11T02:57:37.489Z,14.37
2019-05-11T03:00:10.026Z,13.17
2019-05-11T03:02:41.509Z,15.83
2019-05-11T03:05:12.975Z,17.33
2019-05-11T03:07:44.445Z,13.37
2019-05-11T03:10:16.006Z,11.73
2019-05-11T03:12:47.462Z,12.67
2019-05-11T03:15:18.924Z,16.50
2019-05-11T03:17:50.379Z,17.67
2019-05-11T03:20:21.886Z,15.23
2019-05-11T03:22:53.345Z,15.90
2019-05-11T03:25:24.835Z,17.43
2019-05-11T03:27:56.314Z,17.77
2019-05-11T03:30:27.929Z,15.03
2019-05-11T03:32:59.486Z,19.57
2019-05-11T03:35:30.976Z,18.10
2019-05-11T03:38:02.435Z,17.97
2019-05-11T03:40:34.070Z,15.53
2019-05-11T03:43:07.206Z,14.17
2019-05-11T03:45:38.736Z,19.10
2019-05-11T03:48:10.202Z,15.73
2019-05-11T03:50:41.701Z,14.53
2019-05-11T03:53:13.178Z,18.40
2019-05-11T03:55:44.690Z,19.33
2019-05-11T03:58:16.193Z,17.17
2019-05-11T04:00:47.708Z,18.27
2019-05-11T04:03:19.181Z,15.93
2019-05-11T04:05:50.680Z,16.87
2019-05-11T04:08:22.162Z,17.17
2019-05-11T04:10:53.665Z,22.50
2019-05-11T04:13:25.207Z,20.97
2019-05-11T04:15:56.778Z,19.80
2019-05-11T04:18:28.253Z,16.70
2019-05-11T04:20:59.746Z,20.30
2019-05-11T04:23:31.224Z,19.00
2019-05-11T04:26:03.122Z,17.53
2019-05-11T04:28:34.610Z,21.13
2019-05-11T04:31:06.086Z,16.97
2019-05-11T04:33:37.559Z,20.93
2019-05-11T04:36:09.081Z,24.00
2019-05-11T04:38:40.920Z,15.27
2019-05-11T04:41:12.413Z,16.50
2019-05-11T04:43:44.178Z,15.77
2019-05-11T04:46:15.709Z,18.93
2019-05-11T04:48:47.204Z,15.17
2019-05-11T04:51:18.660Z,14.67
2019-05-11T04:53:50.469Z,17.60
2019-05-11T04:56:22.194Z,15.53
2019-05-11T04:58:53.654Z,15.40
2019-05-11T05:01:25.194Z,15.60
2019-05-11T05:04:12.207Z,14.57
2019-05-11T05:06:29.790Z,13.10
2019-05-11T05:09:03.606Z,13.27
2019-05-11T05:11:36.779Z,13.30
2019-05-11T05:14:08.685Z,16.13
2019-05-11T05:16:40.965Z,15.70
2019-05-11T05:19:14.044Z,13.87
2019-05-11T05:21:45.512Z,16.73
2019-05-11T05:24:17.069Z,14.37
2019-05-11T05:26:48.987Z,12.87
2019-05-11T05:29:20.470Z,24.20
2019-05-11T05:31:51.950Z,12.27
2019-05-11T05:34:23.408Z,12.53
2019-05-11T05:36:54.930Z,13.40
2019-05-11T05:39:26.392Z,14.97
2019-05-11T05:41:59.106Z,15.33
2019-05-11T05:44:30.651Z,10.47
2019-05-11T05:47:02.137Z,14.53
2019-05-11T05:49:33.610Z,18.47
2019-05-11T05:52:05.168Z,12.87
2019-05-11T05:54:36.625Z,10.27
2019-05-11T05:57:08.068Z,11.10
2019-05-11T05:59:39.923Z,12.33
2019-05-11T06:02:11.682Z,10.60
2019-05-11T06:04:43.276Z,12.90
2019-05-11T06:07:15.309Z,11.37
2019-05-11T06:09:46.794Z,10.87
2019-05-11T06:12:18.267Z,13.33
2019-05-11T06:14:49.773Z,12.57
2019-05-11T06:17:21.303Z,11.03
2019-05-11T06:19:52.757Z,10.00
2019-05-11T06:22:24.198Z,9.30
2019-05-11T06:24:55.724Z,8.70
2019-05-11T06:27:27.184Z,8.73
2019-05-11T06:29:58.646Z,9.07
2019-05-11T06:32:30.097Z,7.47
2019-05-11T06:35:02.521Z,11.33
2019-05-11T06:37:34.626Z,8.80
2019-05-11T06:40:06.620Z,11.10
2019-05-11T06:42:38.110Z,10.23
2019-05-11T06:45:09.803Z,8.97
2019-05-11T06:47:41.255Z,10.27
2019-05-11T06:50:13.523Z,10.37
2019-05-11T06:52:45.022Z,10.70
2019-05-11T06:55:16.522Z,8.90
2019-05-11T06:57:48.062Z,11.40
2019-05-11T07:00:19.766Z,8.53
2019-05-11T07:02:51.304Z,7.37
2019-05-11T07:05:22.818Z,7.40
2019-05-11T07:07:54.258Z,7.87
2019-05-11T07:10:25.783Z,7.80
2019-05-11T07:12:58.950Z,8.47
2019-05-11T07:15:32.330Z,5.80
2019-05-11T07:18:03.772Z,7.83
2019-05-11T07:20:49.440Z,5.97
2019-05-11T07:23:08.450Z,8.83
2019-05-11T07:25:39.918Z,7.73
2019-05-11T07:28:11.370Z,8.07
2019-05-11T07:30:42.946Z,8.23
2019-05-11T07:33:14.494Z,5.70
2019-05-11T07:35:47.862Z,9.20
2019-05-11T07:38:19.147Z,16.17
2019-05-11T07:40:50.730Z,8.47
2019-05-11T07:43:22.190Z,8.13
2019-05-11T07:45:55.232Z,9.53
2019-05-11T07:48:27.889Z,7.73
2019-05-11T07:51:00.122Z,6.57
2019-05-11T07:53:31.642Z,7.60
2019-05-11T07:56:03.240Z,6.10
2019-05-11T07:58:34.682Z,7.00
2019-05-11T08:01:08.504Z,8.57
2019-05-11T08:03:39.259Z,6.47
2019-05-11T08:06:10.720Z,8.10
2019-05-11T08:08:42.158Z,8.03
2019-05-11T08:11:13.668Z,7.40
2019-05-11T08:13:45.133Z,7.10
2019-05-11T08:16:18.520Z,10.43
2019-05-11T08:18:50.110Z,6.20
2019-05-11T08:21:21.562Z,7.20
2019-05-11T08:23:53.015Z,6.73
2019-05-11T08:26:24.471Z,7.37
2019-05-11T08:28:57.860Z,5.30
2019-05-11T08:31:29.424Z,7.03
2019-05-11T08:34:01.244Z,7.33
2019-05-11T08:36:32.736Z,7.73
2019-05-11T08:39:07.694Z,7.60
2019-05-11T08:41:39.734Z,6.70
2019-05-11T08:44:11.212Z,7.50
2019-05-11T08:46:42.854Z,5.83
2019-05-11T08:49:15.798Z,5.00
2019-05-11T08:51:47.923Z,3.93
2019-05-11T08:54:19.654Z,5.10
2019-05-11T08:56:51.186Z,5.37
2019-05-11T08:59:22.728Z,4.37
2019-05-11T09:01:54.188Z,4.30
2019-05-11T09:04:25.692Z,3.63
2019-05-11T09:06:58.642Z,3.43
2019-05-11T09:09:30.514Z,7.50
2019-05-11T09:12:02.107Z,6.43
2019-05-11T09:14:33.674Z,3.50
2019-05-11T09:17:07.667Z,4.43
2019-05-11T09:19:38.953Z,6.83
2019-05-11T09:22:28.114Z,2.90
2019-05-11T09:24:59.139Z,4.80
2019-05-11T09:27:30.678Z,2.90
2019-05-11T09:30:02.208Z,2.40
2019-05-11T09:32:33.814Z,2.60
2019-05-11T09:35:08.108Z,3.70
2019-05-11T09:37:38.768Z,3.20
2019-05-11T09:40:10.868Z,3.40
2019-05-11T09:42:42.462Z,3.37
2019-05-11T09:45:14.163Z,4.50
2019-05-11T09:47:47.721Z,5.30
2019-05-11T09:50:19.791Z,5.50
2019-05-11T09:52:51.271Z,3.27
2019-05-11T09:55:22.926Z,5.40
2019-05-11T09:57:54.471Z,3.10
2019-05-11T10:00:28.293Z,5.20
2019-05-11T10:03:00.034Z,4.93
2019-05-11T10:05:31.569Z,3.93
2019-05-11T10:08:03.165Z,3.93
2019-05-11T10:10:34.746Z,6.10
2019-05-11T10:13:08.061Z,3.13
2019-05-11T10:15:39.494Z,3.67
2019-05-11T10:18:11.076Z,4.73
2019-05-11T10:20:42.682Z,5.17
2019-05-11T10:23:14.267Z,3.13
2019-05-11T10:25:47.940Z,4.87
2019-05-11T10:28:19.203Z,4.37
2019-05-11T10:30:51.206Z,4.57
2019-05-11T10:33:22.801Z,3.37
2019-05-11T10:35:54.441Z,4.30
2019-05-11T10:38:28.411Z,2.83
2019-05-11T10:40:59.309Z,5.63
2019-05-11T10:43:30.951Z,2.97
2019-05-11T10:46:16.149Z,2.70
2019-05-11T10:48:38.666Z,2.60
2019-05-11T10:51:09.395Z,3.30
2019-05-11T10:53:41.008Z,2.63
2019-05-11T10:56:12.638Z,4.43
2019-05-11T10:58:44.243Z,3.60
2019-05-11T11:01:17.954Z,3.27
2019-05-11T11:03:49.242Z,5.27
2019-05-11T11:06:20.807Z,5.03
2019-05-11T11:08:52.458Z,3.63
2019-05-11T11:11:24.035Z,3.70
2019-05-11T11:13:58.441Z,3.30
2019-05-11T11:16:36.950Z,2.27
2019-05-11T11:19:03.553Z,2.67
2019-05-11T11:21:35.462Z,2.90
2019-05-11T11:24:07.632Z,2.33
2019-05-11T11:26:39.720Z,2.50
2019-05-11T11:29:11.380Z,3.13
2019-05-11T11:31:42.933Z,7.20
2019-05-11T11:34:14.643Z,3.43
2019-05-11T11:36:48.075Z,2.80
2019-05-11T11:39:19.376Z,3.67
2019-05-11T11:41:50.921Z,2.53
2019-05-11T11:44:22.678Z,3.97
2019-05-11T11:46:55.390Z,4.67
2019-05-11T11:49:28.318Z,3.97
2019-05-11T11:52:00.014Z,3.03
2019-05-11T11:54:31.595Z,2.80
2019-05-11T11:57:03.227Z,2.47
2019-05-11T11:59:34.755Z,2.03
2019-05-11T12:02:08.485Z,2.20
2019-05-11T12:04:39.662Z,2.27
2019-05-11T12:07:11.262Z,4.00
2019-05-11T12:09:42.891Z,3.33
2019-05-11T12:12:14.550Z,1.60
2019-05-11T12:14:47.983Z,2.30
2019-05-11T12:17:19.328Z,2.10
2019-05-11T12:19:50.906Z,2.30
2019-05-11T12:22:22.666Z,2.83
2019-05-11T12:24:54.182Z,2.33
2019-05-11T12:27:28.688Z,3.00
2019-05-11T12:30:00.279Z,3.03
2019-05-11T12:32:38.778Z,2.50
2019-05-11T12:35:10.376Z,1.70
2019-05-11T12:37:41.932Z,2.93
2019-05-11T12:40:14.612Z,2.30
2019-05-11T12:42:48.669Z,2.77
2019-05-11T12:45:19.471Z,4.93
2019-05-11T12:47:51.045Z,4.63
2019-05-11T12:50:22.690Z,3.77
2019-05-11T12:52:56.077Z,4.27
2019-05-11T12:55:28.618Z,5.57
2019-05-11T12:58:01.470Z,5.40
2019-05-11T13:00:33.055Z,3.67
2019-05-11T13:03:04.619Z,2.37
2019-05-11T13:05:37.771Z,3.83
2019-05-11T13:08:09.945Z,2.70
2019-05-11T13:10:41.417Z,2.40
2019-05-11T13:13:12.889Z,3.27
2019-05-11T13:15:44.347Z,2.10
2019-05-11T13:18:15.903Z,3.10
2019-05-11T13:20:48.317Z,1.83
2019-05-11T13:23:20.209Z,2.37
2019-05-11T13:25:51.690Z,2.70
2019-05-11T13:28:23.259Z,2.40
2019-05-11T13:30:54.744Z,3.93
2019-05-11T13:33:28.014Z,2.30
2019-05-11T13:35:59.440Z,2.73
2019-05-11T13:38:31.010Z,2.60
2019-05-11T13:41:02.553Z,2.50
2019-05-11T13:43:34.049Z,2.27
2019-05-11T13:46:05.931Z,2.37
2019-05-11T13:48:38.635Z,3.57
2019-05-11T13:51:10.431Z,3.93
2019-05-11T13:53:42.230Z,4.30
2019-05-11T13:56:13.703Z,2.92
2019-05-11T13:58:45.721Z,2.35
2019-05-11T14:01:18.462Z,1.97
2019-05-11T14:03:50.711Z,4.20
2019-05-11T14:06:22.234Z,2.47
2019-05-11T14:08:53.745Z,2.37
2019-05-11T14:11:25.217Z,3.67
2019-05-11T14:13:58.470Z,2.93
2019-05-11T14:16:29.776Z,2.37
2019-05-11T14:19:01.295Z,2.27
2019-05-11T14:21:32.767Z,2.40
2019-05-11T14:24:04.288Z,2.93
2019-05-11T14:26:38.385Z,3.90
2019-05-11T14:29:09.422Z,5.13
2019-05-11T14:31:40.869Z,5.40
2019-05-11T14:34:12.322Z,7.37
2019-05-11T14:36:43.851Z,7.20
2019-05-11T14:39:15.307Z,5.20
2019-05-11T14:41:48.759Z,5.73
2019-05-11T14:44:19.933Z,7.93
2019-05-11T14:46:51.663Z,5.90
2019-05-11T14:49:23.118Z,6.67
2019-05-11T14:51:54.965Z,5.90
2019-05-11T14:54:28.658Z,4.80
2019-05-11T14:56:59.581Z,9.40
2019-05-11T14:59:31.090Z,5.73
2019-05-11T15:02:08.691Z,5.87
2019-05-11T15:04:40.297Z,6.37
2019-05-11T15:07:11.752Z,5.37
2019-05-11T15:09:43.248Z,6.43
2019-05-11T15:12:14.688Z,5.20
2019-05-11T15:14:48.462Z,7.93
2019-05-11T15:17:19.444Z,6.20
2019-05-11T15:19:50.942Z,4.57
2019-05-11T15:22:22.409Z,5.43
2019-05-11T15:24:53.885Z,5.60
2019-05-11T15:27:25.341Z,7.07
2019-05-11T15:29:58.818Z,7.23
2019-05-11T15:32:30.138Z,4.70
2019-05-11T15:35:01.807Z,7.10
2019-05-11T15:37:34.534Z,7.07
2019-05-11T15:40:14.693Z,4.90
2019-05-11T15:42:48.385Z,3.47
2019-05-11T15:45:20.327Z,4.93
2019-05-11T15:47:51.853Z,4.57
2019-05-11T15:50:23.590Z,3.33
2019-05-11T15:52:55.074Z,6.93
2019-05-11T15:55:27.878Z,4.33
2019-05-11T15:58:00.091Z,4.03
2019-05-11T16:00:31.600Z,4.57
2019-05-11T16:03:03.122Z,5.13
2019-05-11T16:05:34.684Z,6.73
2019-05-11T16:08:08.408Z,4.17
2019-05-11T16:10:39.409Z,5.13
2019-05-11T16:13:10.867Z,4.20
2019-05-11T16:15:42.353Z,6.97
2019-05-11T16:18:13.800Z,4.30
2019-05-11T16:20:47.657Z,4.17
2019-05-11T16:23:20.256Z,6.93
2019-05-11T16:25:51.782Z,4.23
2019-05-11T16:28:27.904Z,6.23
2019-05-11T16:30:58.456Z,4.47
2019-05-11T16:33:31.348Z,3.70
2019-05-11T16:36:02.834Z,4.03
2019-05-11T16:38:34.358Z,3.80
2019-05-11T16:41:05.884Z,4.60
2019-05-11T16:43:38.500Z,4.00
2019-05-11T16:46:10.146Z,4.40
2019-05-11T16:48:41.582Z,3.90
2019-05-11T16:51:13.507Z,5.77
2019-05-11T16:53:45.408Z,3.67
2019-05-11T16:56:16.883Z,3.20
2019-05-11T16:58:48.536Z,5.30
2019-05-11T17:01:20.325Z,3.63
2019-05-11T17:03:51.800Z,3.07
2019-05-11T17:06:23.334Z,3.50
2019-05-11T17:08:54.787Z,5.87
2019-05-11T17:11:26.322Z,3.97
2019-05-11T17:13:57.822Z,4.27
2019-05-11T17:16:29.318Z,3.90
2019-05-11T17:19:00.864Z,2.97
2019-05-11T17:21:32.423Z,4.27
2019-05-11T17:24:03.951Z,2.67
2019-05-11T17:26:35.521Z,3.37
2019-05-11T17:29:07.002Z,3.47
2019-05-11T17:31:38.559Z,4.00
2019-05-11T17:34:10.114Z,3.83
2019-05-11T17:36:42.212Z,2.87
2019-05-11T17:39:13.669Z,3.33
2019-05-11T17:41:45.152Z,2.90
2019-05-11T17:44:18.541Z,3.00
2019-05-11T17:46:50.040Z,3.30
2019-05-11T17:49:21.536Z,3.33
2019-05-11T17:51:53.165Z,3.63
2019-05-11T17:54:24.808Z,6.10
2019-05-11T17:56:57.846Z,4.37
2019-05-11T17:59:29.520Z,3.30
2019-05-11T18:02:01.114Z,5.47
2019-05-11T18:04:32.640Z,3.47
2019-05-11T18:07:04.279Z,3.33
2019-05-11T18:09:37.944Z,4.80
2019-05-11T18:12:09.890Z,5.90
2019-05-11T18:14:42.739Z,5.53
2019-05-11T18:17:14.445Z,4.17
2019-05-11T18:19:45.956Z,4.13
2019-05-11T18:22:17.917Z,5.50
2019-05-11T18:24:50.900Z,7.83
2019-05-11T18:27:22.550Z,13.60
2019-05-11T18:29:54.182Z,13.30
2019-05-11T18:32:28.249Z,15.83
2019-05-11T18:34:59.076Z,8.60
2019-05-11T18:37:30.588Z,7.53
2019-05-11T18:40:02.128Z,8.03
2019-05-11T18:42:34.254Z,9.70
2019-05-11T18:45:08.366Z,25.77
2019-05-11T18:47:39.755Z,15.73
2019-05-11T18:50:12.270Z,8.90
2019-05-11T18:52:43.849Z,8.20
2019-05-11T18:55:15.558Z,7.73
2019-05-11T18:57:49.039Z,9.77
2019-05-11T19:00:21.081Z,10.07
2019-05-11T19:02:52.674Z,8.50
2019-05-11T19:05:24.162Z,7.13
2019-05-11T19:07:57.827Z,7.00
2019-05-11T19:10:29.394Z,6.20
2019-05-11T19:13:01.034Z,6.10
2019-05-11T19:15:32.660Z,4.60
2019-05-11T19:18:04.168Z,7.17
2019-05-11T19:20:45.409Z,7.07
2019-05-11T19:23:13.008Z,8.50
2019-05-11T19:25:44.638Z,7.50
2019-05-11T19:28:18.495Z,10.17
2019-05-11T19:30:49.551Z,9.33
2019-05-11T19:33:21.170Z,8.70
2019-05-11T19:35:52.785Z,6.73
2019-05-11T19:38:27.940Z,8.73
2019-05-11T19:40:59.080Z,9.30
2019-05-11T19:43:30.724Z,11.73
2019-05-11T19:46:02.352Z,13.67
2019-05-11T19:48:34.002Z,12.47
2019-05-11T19:51:09.106Z,11.63
2019-05-11T19:53:38.955Z,8.93
2019-05-11T19:56:11.183Z,8.90
2019-05-11T19:58:42.710Z,8.37
2019-05-11T20:01:14.442Z,6.83
2019-05-11T20:03:47.347Z,7.30
2019-05-11T20:06:18.988Z,7.13
2019-05-11T20:08:50.624Z,6.97
2019-05-11T20:11:22.205Z,6.27
2019-05-11T20:13:55.036Z,8.47
2019-05-11T20:16:26.706Z,9.40
2019-05-11T20:18:58.211Z,7.17
2019-05-11T20:21:29.887Z,8.50
2019-05-11T20:24:02.892Z,5.93
2019-05-11T20:26:34.469Z,8.90
2019-05-11T20:29:07.944Z,7.13
2019-05-11T20:31:39.240Z,7.87
2019-05-11T20:34:10.843Z,7.00
2019-05-11T20:36:42.508Z,7.67
2019-05-11T20:39:14.225Z,7.90
2019-05-11T20:41:47.758Z,9.07
2019-05-11T20:44:19.224Z,8.57
2019-05-11T20:46:50.803Z,7.10
2019-05-11T20:49:22.352Z,9.20
2019-05-11T20:51:53.962Z,9.33
2019-05-11T20:54:28.188Z,10.40
2019-05-11T20:57:00.144Z,10.97
2019-05-11T20:59:31.846Z,9.33
2019-05-11T21:02:03.411Z,10.27
2019-05-11T21:04:35.205Z,10.63
2019-05-11T21:07:08.526Z,8.33
2019-05-11T21:09:39.979Z,8.77
2019-05-11T21:12:11.550Z,10.60
2019-05-11T21:14:43.638Z,9.33
2019-05-11T21:17:15.181Z,10.97
2019-05-11T21:19:47.879Z,10.80
2019-05-11T21:22:19.729Z,6.33
2019-05-11T21:24:51.268Z,9.60
2019-05-11T21:27:22.762Z,10.77
2019-05-11T21:29:54.666Z,9.10
2019-05-11T21:32:27.882Z,7.00
2019-05-11T21:35:01.083Z,7.03
2019-05-11T21:37:32.527Z,9.97
2019-05-11T21:40:03.991Z,6.10
2019-05-11T21:42:35.490Z,6.87
2019-05-11T21:45:09.072Z,8.10
2019-05-11T21:47:40.926Z,7.83
2019-05-11T21:50:14.144Z,7.90
2019-05-11T21:52:45.724Z,7.67
2019-05-11T21:55:17.403Z,8.30
2019-05-11T21:57:49.851Z,6.63
2019-05-11T22:00:21.790Z,6.13
2019-05-11T22:02:55.043Z,6.37
2019-05-11T22:05:28.859Z,7.60
2019-05-11T22:07:59.888Z,7.90
2019-05-11T22:10:31.432Z,6.03
2019-05-11T22:13:03.344Z,5.47
2019-05-11T22:15:34.890Z,6.47
2019-05-11T22:18:07.959Z,5.50
2019-05-11T22:20:41.071Z,4.00
2019-05-11T22:23:13.938Z,4.83
2019-05-11T22:25:47.578Z,3.57
2019-05-11T22:28:18.649Z,3.80
2019-05-11T22:30:50.139Z,3.30
2019-05-11T22:33:21.674Z,3.80
2019-05-11T22:35:53.153Z,4.67
2019-05-11T22:38:24.718Z,3.93
2019-05-11T22:40:58.251Z,6.60
2019-05-11T22:43:29.419Z,7.03
2019-05-11T22:46:02.284Z,3.80
2019-05-11T22:48:33.890Z,5.67
2019-05-11T22:51:07.840Z,4.87
2019-05-11T22:53:44.885Z,5.07
2019-05-11T22:56:12.295Z,7.03
2019-05-11T22:58:43.872Z,6.70
2019-05-11T23:01:17.809Z,5.50
2019-05-11T23:03:49.029Z,4.93
2019-05-11T23:06:20.759Z,6.27
2019-05-11T23:08:54.230Z,6.13
2019-05-11T23:11:28.338Z,4.93
2019-05-11T23:13:59.027Z,6.97
2019-05-11T23:16:30.535Z,6.23
2019-05-11T23:19:02.088Z,7.10
2019-05-11T23:21:33.713Z,6.00
2019-05-11T23:24:07.547Z,4.33
2019-05-11T23:26:38.730Z,6.00
2019-05-11T23:29:10.406Z,4.40
2019-05-11T23:31:43.179Z,8.17
2019-05-11T23:34:14.740Z,5.10
2019-05-11T23:36:48.136Z,5.90
2019-05-11T23:39:19.446Z,5.60
2019-05-11T23:41:50.997Z,5.47
2019-05-11T23:44:22.475Z,5.60
2019-05-11T23:46:53.974Z,5.70
2019-05-11T23:49:25.554Z,8.07
2019-05-11T23:51:57.039Z,5.53
2019-05-11T23:54:28.605Z,4.93
2019-05-11T23:57:00.524Z,7.70
2019-05-11T23:59:32.343Z,6.63
